Terminal Aerodrome Forecast
Issued by NWS

Home | Current Version | Previous Version | Text Only | Print | Product List | Glossary On
Versions: 1 2 3 4 5 6 7 8 9 10 11 12
158
FTUS44 KJAN 241734
TAFGTR
TAF
KGTR 241734Z 2418/2518 19006KT P6SM SKC
     FM250000 17004KT P6SM FEW250
     FM251500 17010KT P6SM FEW020 SCT040 BKN250=

USA.gov is the U.S. government's official web portal to all federal, state and local government web resources and services.